Time;durP1;ratioP1;P1;durP2;ratioP2;P2;SDS_P1;SDS_P2;PMS_P1;PMS_P2;Temp;Humidity;BMP_temperature;BMP_pressure;BME280_temperature;BME280_humidity;BME280_pressure;Samples;Min_cycle;Max_cycle;Signal;HPM_P1;HPM_P2
2021/03/23 00:00:16;;;;;;;;;;;;;;;17.96;61.65;101263.19;5110778;28;1268;-68
2021/03/23 00:02:47;;;;;;;;;;;;;;;17.94;61.81;101267.66;5110260;28;1895;-68
2021/03/23 00:05:14;;;;;;;;;;;;;;;17.92;61.96;101265.13;5091935;28;1377;-68
2021/03/23 00:07:40;;;;;;;;;;;;;;;17.90;61.91;101271.38;5110262;28;1341;-68
2021/03/23 00:10:07;;;;;;;;;;;;;;;17.89;62.19;101265.25;5111605;28;1232;-68
2021/03/23 00:12:36;;;;;;;;;;;;;;;17.87;62.17;101271.53;5093544;28;1353;-67
2021/03/23 00:15:04;;;;;;;;;;;;;;;17.87;61.98;101276.81;5111475;28;1264;-68
2021/03/23 00:17:30;;;;;;;;;;;;;;;17.84;62.22;101272.50;5093628;28;1299;-68
2021/03/23 00:19:57;;;;;;;;;;;;;;;17.83;62.15;101278.72;5112390;28;1200;-68
2021/03/23 00:22:23;;;;;;;;;;;;;;;17.81;62.00;101279.72;5111652;28;1909;-67
2021/03/23 00:24:49;;;;;;;;;;;;;;;17.80;61.74;101286.75;5111861;28;1082;-67
2021/03/23 00:27:16;;;;;;;;;;;;;;;17.78;61.73;101277.22;5111790;28;1259;-68
2021/03/23 00:29:44;;;;;;;;;;;;;;;17.75;61.63;101287.88;5111698;28;1287;-67
2021/03/23 00:32:11;;;;;;;;;;;;;;;17.74;62.04;101287.03;5076451;28;1370;-67
2021/03/23 00:34:38;;;;;;;;;;;;;;;17.73;61.80;101300.25;5111425;28;1225;-68
2021/03/23 00:37:05;;;;;;;;;;;;;;;17.71;61.70;101288.94;5111174;28;1462;-66
2021/03/23 00:39:31;;;;;;;;;;;;;;;17.69;62.01;101288.16;5111427;28;1283;-68
2021/03/23 00:41:57;;;;;;;;;;;;;;;17.67;61.76;101289.97;5111400;28;1311;-67
2021/03/23 00:44:24;;;;;;;;;;;;;;;17.66;61.24;101294.38;5092892;28;2093;-66
2021/03/23 00:46:50;;;;;;;;;;;;;;;17.65;61.51;101292.69;5111049;28;1358;-67
2021/03/23 00:49:16;;;;;;;;;;;;;;;17.65;61.29;101292.69;5111383;28;1253;-67
2021/03/23 00:51:43;;;;;;;;;;;;;;;17.63;61.36;101283.97;5093114;28;1520;-67
2021/03/23 00:54:09;;;;;;;;;;;;;;;17.63;61.15;101285.78;5110335;28;1288;-68
2021/03/23 00:56:36;;;;;;;;;;;;;;;17.62;61.08;101286.69;5092785;28;1441;-68
2021/03/23 00:59:02;;;;;;;;;;;;;;;17.60;60.84;101288.56;5111268;28;1279;-67
2021/03/23 01:01:29;;;;;;;;;;;;;;;17.58;60.90;101282.47;5092610;28;1382;-68
2021/03/23 01:04:13;;;;;;;;;;;;;;;17.58;60.83;101283.34;5109321;28;1975;-69
2021/03/23 01:06:40;;;;;;;;;;;;;;;17.58;60.36;101274.56;5092274;28;1426;-68
2021/03/23 01:09:06;;;;;;;;;;;;;;;17.56;60.26;101277.28;5092192;28;1219;-67
2021/03/23 01:11:33;;;;;;;;;;;;;;;17.56;59.82;101276.44;5092369;28;1393;-68
2021/03/23 01:13:59;;;;;;;;;;;;;;;17.56;59.39;101276.44;5110716;28;1061;-68
2021/03/23 01:16:26;;;;;;;;;;;;;;;17.56;59.42;101276.44;5110449;28;1354;-68
2021/03/23 01:18:52;;;;;;;;;;;;;;;17.55;59.50;101269.44;5092519;28;1153;-68
2021/03/23 01:21:18;;;;;;;;;;;;;;;17.53;59.74;101269.50;5110547;28;1284;-68
2021/03/23 01:23:45;;;;;;;;;;;;;;;17.52;60.23;101267.78;5110571;28;1902;-68
2021/03/23 01:26:11;;;;;;;;;;;;;;;17.50;60.47;101261.72;5092207;28;1432;-68
2021/03/23 01:28:37;;;;;;;;;;;;;;;17.49;60.52;101266.13;5092130;28;1260;-68
2021/03/23 01:31:03;;;;;;;;;;;;;;;17.49;60.46;101271.41;5110352;28;1276;-66
2021/03/23 01:33:30;;;;;;;;;;;;;;;17.47;60.36;101262.72;5110261;28;1291;-67
2021/03/23 01:35:56;;;;;;;;;;;;;;;17.47;60.28;101272.41;5091838;28;1382;-67
2021/03/23 01:38:23;;;;;;;;;;;;;;;17.46;60.53;101271.53;5110275;28;1303;-67
2021/03/23 01:40:49;;;;;;;;;;;;;;;17.45;60.65;101276.84;5109737;28;1275;-66
2021/03/23 01:43:24;;;;;;;;;;;;;;;17.45;60.38;101268.94;5110069;28;1979;-68
2021/03/23 01:45:51;;;;;;;;;;;;;;;17.43;60.61;101265.53;5107611;28;1271;-68
2021/03/23 01:48:19;;;;;;;;;;;;;;;17.42;60.56;101275.22;5110208;28;1216;-67
2021/03/23 01:50:50;;;;;;;;;;;;;;;17.42;60.32;101269.09;5109849;28;1567;-68
2021/03/23 01:53:22;;;;;;;;;;;;;;;17.39;60.47;101264.81;5110009;28;1212;-68
2021/03/23 01:55:48;;;;;;;;;;;;;;;17.41;60.56;101270.03;5088660;28;1352;-68
2021/03/23 01:58:17;;;;;;;;;;;;;;;17.39;60.62;101269.22;5110035;28;1232;-68
2021/03/23 02:00:45;;;;;;;;;;;;;;;17.38;60.60;101273.66;5108717;28;1366;-66
2021/03/23 02:03:12;;;;;;;;;;;;;;;17.40;60.65;101276.22;5109786;28;1970;-67
2021/03/23 02:05:38;;;;;;;;;;;;;;;17.40;60.49;101281.47;5091405;28;1252;-68
2021/03/23 02:08:05;;;;;;;;;;;;;;;17.39;60.66;101282.38;5091333;28;1177;-67
2021/03/23 02:10:33;;;;;;;;;;;;;;;17.37;60.57;101274.56;5091806;28;1200;-67
2021/03/23 02:12:59;;;;;;;;;;;;;;;17.36;60.53;101275.47;5109884;28;1259;-68
2021/03/23 02:15:26;;;;;;;;;;;;;;;17.36;60.65;101286.00;5109649;28;1244;-68
2021/03/23 02:18:11;;;;;;;;;;;;;;;17.37;60.70;101286.88;5091123;28;1314;-65
2021/03/23 02:20:57;;;;;;;;;;;;;;;17.34;60.64;101290.50;5108039;28;1293;-67
2021/03/23 02:23:24;;;;;;;;;;;;;;;17.34;60.80;101282.59;5090292;28;1963;-67
2021/03/23 02:25:50;;;;;;;;;;;;;;;17.35;60.80;101288.72;5106922;28;1370;-67
2021/03/23 02:28:17;;;;;;;;;;;;;;;17.33;60.72;101287.91;5091056;28;1492;-67
2021/03/23 02:30:46;;;;;;;;;;;;;;;17.32;60.91;101288.84;5090863;28;1307;-68
2021/03/23 02:33:13;;;;;;;;;;;;;;;17.32;61.01;101278.31;5088824;28;1288;-68
2021/03/23 02:35:39;;;;;;;;;;;;;;;17.31;60.94;101287.13;5109042;28;1268;-68
2021/03/23 02:38:05;;;;;;;;;;;;;;;17.30;60.80;101278.38;5090746;28;1280;-68
2021/03/23 02:40:32;;;;;;;;;;;;;;;17.29;61.09;101279.31;5109177;28;1271;-68
2021/03/23 02:42:59;;;;;;;;;;;;;;;17.28;60.98;101282.84;5109016;28;1910;-67
2021/03/23 02:45:26;;;;;;;;;;;;;;;17.27;61.04;101280.28;5090722;28;1212;-67
2021/03/23 02:47:52;;;;;;;;;;;;;;;17.26;61.04;101278.59;5109200;28;1240;-68
2021/03/23 02:50:19;;;;;;;;;;;;;;;17.26;60.98;101278.59;5108526;28;1409;-67
2021/03/23 02:52:47;;;;;;;;;;;;;;;17.26;61.09;101289.13;5108359;28;1267;-68
2021/03/23 02:55:13;;;;;;;;;;;;;;;17.24;61.61;101277.78;5090567;28;1288;-68
2021/03/23 02:57:40;;;;;;;;;;;;;;;17.21;61.18;101273.50;5108932;28;1268;-67
2021/03/23 03:00:07;;;;;;;;;;;;;;;17.22;61.28;101274.34;5108572;28;1200;-67
2021/03/23 03:02:34;;;;;;;;;;;;;;;17.21;61.29;101268.22;5108735;28;1913;-68
2021/03/23 03:05:00;;;;;;;;;;;;;;;17.20;61.19;101273.56;5090691;28;1272;-68
2021/03/23 03:07:26;;;;;;;;;;;;;;;17.21;61.08;101267.38;5108772;28;1260;-67
2021/03/23 03:09:53;;;;;;;;;;;;;;;17.18;61.63;101265.72;5108921;28;1295;-67
2021/03/23 03:12:19;;;;;;;;;;;;;;;17.18;61.24;101271.00;5108355;28;1266;-67
2021/03/23 03:14:45;;;;;;;;;;;;;;;17.19;61.50;101271.84;5090233;28;1349;-68
2021/03/23 03:17:31;;;;;;;;;;;;;;;17.17;61.25;101263.19;5105033;28;1212;-68
2021/03/23 03:19:58;;;;;;;;;;;;;;;17.16;61.29;101269.34;5090409;28;1236;-68
2021/03/23 03:22:25;;;;;;;;;;;;;;;17.16;61.23;101272.84;5090186;28;1337;-68
2021/03/23 03:24:51;;;;;;;;;;;;;;;17.15;61.20;101276.38;5105654;28;1906;-68
2021/03/23 03:27:17;;;;;;;;;;;;;;;17.15;61.33;101275.53;5108397;28;1227;-68
2021/03/23 03:29:43;;;;;;;;;;;;;;;17.14;61.30;101274.69;5108365;28;1232;-68
2021/03/23 03:32:09;;;;;;;;;;;;;;;17.15;61.27;101286.06;5073216;28;1331;-69
2021/03/23 03:34:36;;;;;;;;;;;;;;;17.12;61.39;101275.66;5108182;28;1257;-68
2021/03/23 03:37:02;;;;;;;;;;;;;;;17.12;61.44;101280.91;5108398;28;1276;-68
2021/03/23 03:39:28;;;;;;;;;;;;;;;17.10;61.30;101278.38;5090357;28;1273;-68
2021/03/23 03:41:55;;;;;;;;;;;;;;;17.10;61.23;101273.09;5090438;28;1277;-68
2021/03/23 03:44:21;;;;;;;;;;;;;;;17.10;61.19;101275.72;5090187;28;1918;-68
2021/03/23 03:46:47;;;;;;;;;;;;;;;17.09;61.23;101273.16;5108394;28;1346;-68
2021/03/23 03:49:14;;;;;;;;;;;;;;;17.09;61.50;101267.88;5090388;28;1228;-69
2021/03/23 03:51:40;;;;;;;;;;;;;;;17.08;61.34;101272.31;5108207;28;1278;-69
2021/03/23 03:54:06;;;;;;;;;;;;;;;17.09;61.18;101267.88;5090098;28;1362;-68
2021/03/23 03:56:33;;;;;;;;;;;;;;;17.07;61.31;101265.34;5089993;28;1330;-69
2021/03/23 03:58:59;;;;;;;;;;;;;;;17.08;61.23;101268.81;5090414;28;1312;-68
2021/03/23 04:01:25;;;;;;;;;;;;;;;17.07;61.46;101261.84;5090283;28;1499;-69
2021/03/23 04:03:52;;;;;;;;;;;;;;;17.07;61.27;101265.34;5105946;28;1927;-69
2021/03/23 04:06:36;;;;;;;;;;;;;;;17.05;61.42;101268.94;5105989;28;1252;-68
2021/03/23 04:09:02;;;;;;;;;;;;;;;17.05;61.27;101275.06;5090131;28;1237;-67
2021/03/23 04:11:28;;;;;;;;;;;;;;;17.06;61.29;101265.38;5107830;28;1374;-68
2021/03/23 04:13:55;;;;;;;;;;;;;;;17.05;61.48;101271.59;5089749;28;1241;-68
2021/03/23 04:16:21;;;;;;;;;;;;;;;17.05;61.48;101271.59;5089502;28;1370;-68
2021/03/23 04:18:47;;;;;;;;;;;;;;;17.05;61.29;101276.84;5108066;28;1295;-68
2021/03/23 04:21:14;;;;;;;;;;;;;;;17.03;61.38;101273.41;5089976;28;1366;-68
2021/03/23 04:23:41;;;;;;;;;;;;;;;17.03;61.20;101271.63;5108140;28;1983;-68
2021/03/23 04:26:08;;;;;;;;;;;;;;;17.02;61.25;101274.34;5089517;28;1436;-68
2021/03/23 04:28:35;;;;;;;;;;;;;;;17.01;61.46;101277.88;5108495;28;1283;-68
2021/03/23 04:31:02;;;;;;;;;;;;;;;17.01;61.43;101278.75;5093170;28;1321;-68
2021/03/23 04:33:29;;;;;;;;;;;;;;;17.00;61.44;101269.13;5111475;28;1469;-67
2021/03/23 04:35:57;;;;;;;;;;;;;;;17.01;61.41;101267.34;5111155;28;1278;-67
2021/03/23 04:38:25;;;;;;;;;;;;;;;16.99;61.46;101274.47;5093165;28;1288;-67
2021/03/23 04:40:52;;;;;;;;;;;;;;;17.00;61.43;101277.03;5111363;28;1274;-67
2021/03/23 04:43:21;;;;;;;;;;;;;;;17.00;61.84;101278.78;5092562;28;1918;-68
2021/03/23 04:45:47;;;;;;;;;;;;;;;16.99;61.52;101279.72;5111414;28;1283;-67
2021/03/23 04:48:14;;;;;;;;;;;;;;;16.98;61.58;101275.38;5090312;28;1265;-69
2021/03/23 04:50:41;;;;;;;;;;;;;;;16.97;61.59;101284.19;5110000;28;1442;-68
2021/03/23 04:53:16;;;;;;;;;;;;;;;16.97;61.49;101292.94;5092518;28;1216;-68
2021/03/23 04:55:42;;;;;;;;;;;;;;;16.95;61.44;101294.78;5091052;28;1371;-67
2021/03/23 04:58:09;;;;;;;;;;;;;;;16.96;61.50;101301.78;5092986;28;1311;-67
2021/03/23 05:00:35;;;;;;;;;;;;;;;16.95;61.39;101300.06;5111066;28;1307;-68
2021/03/23 05:03:02;;;;;;;;;;;;;;;16.97;61.77;101303.47;5111058;28;1990;-68
2021/03/23 05:05:28;;;;;;;;;;;;;;;16.93;61.57;101304.53;5111000;28;1260;-68
2021/03/23 05:07:55;;;;;;;;;;;;;;;16.92;61.46;101303.66;5110589;28;1320;-67
2021/03/23 05:10:21;;;;;;;;;;;;;;;16.93;61.46;101304.53;5110034;27;1303;-68
2021/03/23 05:12:48;;;;;;;;;;;;;;;16.92;61.44;101306.31;5112943;27;1366;-68
2021/03/23 05:15:14;;;;;;;;;;;;;;;16.91;61.60;101309.84;5087438;28;1361;-68
2021/03/23 05:17:40;;;;;;;;;;;;;;;16.91;61.51;101312.47;5091890;28;1303;-68
2021/03/23 05:20:07;;;;;;;;;;;;;;;16.91;61.50;101307.22;5092034;28;1315;-69
2021/03/23 05:22:34;;;;;;;;;;;;;;;16.92;61.34;101311.56;5110180;28;1383;-68
2021/03/23 05:25:01;;;;;;;;;;;;;;;16.91;61.15;101314.25;5110619;28;1913;-68
2021/03/23 05:27:28;;;;;;;;;;;;;;;16.91;61.32;101309.84;5092515;28;1295;-68
2021/03/23 05:29:54;;;;;;;;;;;;;;;16.89;61.51;101306.44;5089148;28;1394;-68
2021/03/23 05:32:20;;;;;;;;;;;;;;;16.88;61.38;101312.59;5110569;28;1361;-68
2021/03/23 05:34:47;;;;;;;;;;;;;;;16.87;61.46;101313.50;5075302;28;1394;-68
2021/03/23 05:37:13;;;;;;;;;;;;;;;16.88;61.36;101328.38;5092291;28;1259;-68
2021/03/23 05:39:41;;;;;;;;;;;;;;;16.87;61.31;101321.41;5075259;28;1291;-68
2021/03/23 05:42:19;;;;;;;;;;;;;;;16.86;61.46;101324.97;5110167;28;1251;-69
2021/03/23 05:45:04;;;;;;;;;;;;;;;16.86;61.44;101326.75;5108696;28;1910;-69
2021/03/23 05:47:35;;;;;;;;;;;;;;;16.85;61.55;101330.28;5109517;28;1307;-69
2021/03/23 05:50:01;;;;;;;;;;;;;;;16.85;61.41;101339.03;5110111;28;1263;-68
2021/03/23 05:52:43;;;;;;;;;;;;;;;16.83;61.37;101347.91;5110255;28;1295;-68
2021/03/23 05:55:29;;;;;;;;;;;;;;;16.83;61.38;101348.78;5090934;28;1281;-69
2021/03/23 05:57:56;;;;;;;;;;;;;;;16.83;61.51;101354.03;5106088;28;1209;-68
2021/03/23 06:00:25;;;;;;;;;;;;;;;16.82;61.29;101357.56;5091215;28;1142;-68
2021/03/23 06:02:57;;;;;;;;;;;;;;;16.82;61.33;101356.72;5109830;28;1902;-69
2021/03/23 06:05:24;;;;;;;;;;;;;;;16.81;61.38;101358.47;5091415;28;1424;-68
2021/03/23 06:08:21;;;;;;;;;;;;;;;16.80;61.38;101362.03;5090262;28;1370;-68
2021/03/23 06:10:47;;;;;;;;;;;;;;;16.81;61.28;101365.53;5108560;28;1302;-69
2021/03/23 06:13:21;;;;;;;;;;;;;;;16.81;61.23;101355.00;5091112;28;1305;-69
2021/03/23 06:15:50;;;;;;;;;;;;;;;16.79;61.21;101360.31;5091223;28;1367;-69
2021/03/23 06:18:34;;;;;;;;;;;;;;;16.79;61.22;101370.84;5088644;28;1304;-69
2021/03/23 06:21:09;;;;;;;;;;;;;;;16.88;61.15;101374.88;5088431;28;1306;-67
2021/03/23 06:23:39;;;;;;;;;;;;;;;16.85;60.99;101378.50;5105843;28;1906;-67
2021/03/23 06:26:05;;;;;;;;;;;;;;;16.82;61.10;101381.25;5090122;28;1380;-68
2021/03/23 06:28:33;;;;;;;;;;;;;;;16.83;60.90;101384.75;5073488;28;1637;-65
2021/03/23 06:31:18;;;;;;;;;;;;;;;16.82;61.10;101391.78;5108651;28;1307;-69
2021/03/23 06:33:44;;;;;;;;;;;;;;;16.84;61.09;101397.81;5106837;28;1257;-68
2021/03/23 06:36:25;;;;;;;;;;;;;;;16.83;61.37;101406.66;5090151;28;1361;-70
2021/03/23 06:38:51;;;;;;;;;;;;;;;16.83;61.18;101400.53;5089204;28;1331;-70
2021/03/23 06:41:17;;;;;;;;;;;;;;;16.97;61.94;101397.34;5089609;28;1287;-70
2021/03/23 06:43:48;;;;;;;;;;;;;;;16.92;61.87;101398.41;5107195;28;1977;-69
2021/03/23 06:46:38;;;;;;;;;;;;;;;16.87;60.91;101402.97;5107914;28;1441;-69
2021/03/23 06:49:13;;;;;;;;;;;;;;;16.88;61.30;101402.06;5071752;28;1313;-73
2021/03/23 06:51:49;;;;;;;;;;;;;;;16.84;61.11;101408.34;5086550;28;1366;-71
2021/03/23 06:54:15;;;;;;;;;;;;;;;16.86;62.09;101406.53;5107926;28;1346;-69
2021/03/23 06:56:41;;;;;;;;;;;;;;;16.86;61.89;101403.91;5107973;28;1381;-70
2021/03/23 06:59:08;;;;;;;;;;;;;;;16.88;62.05;101417.84;5108248;28;1280;-70
2021/03/23 07:01:44;;;;;;;;;;;;;;;17.00;64.13;101418.28;5089698;28;1369;-69
2021/03/23 07:04:24;;;;;;;;;;;;;;;17.02;63.78;101421.75;5090624;28;1977;-67
2021/03/23 07:07:11;;;;;;;;;;;;;;;16.98;63.24;101428.88;5107578;28;1271;-68
2021/03/23 07:10:04;;;;;;;;;;;;;;;16.93;63.09;101422.97;5087692;28;1290;-68
2021/03/23 07:12:41;;;;;;;;;;;;;;;16.86;63.19;101426.72;5101517;28;1520;-68
2021/03/23 07:15:10;;;;;;;;;;;;;;;16.91;63.44;101438.78;5107302;28;1245;-68
2021/03/23 07:17:40;;;;;;;;;;;;;;;16.91;63.12;101446.69;5106656;28;1308;-67
2021/03/23 07:20:10;;;;;;;;;;;;;;;16.89;63.15;101443.25;5090041;28;1399;-67
2021/03/23 07:22:56;;;;;;;;;;;;;;;16.82;63.00;101441.78;5090476;28;1397;-68
2021/03/23 07:25:27;;;;;;;;;;;;;;;16.90;63.49;101450.22;5085360;28;2090;-66
2021/03/23 07:28:14;;;;;;;;;;;;;;;16.86;62.80;101451.28;5109208;28;1276;-69
2021/03/23 07:30:41;;;;;;;;;;;;;;;16.83;62.70;101454.03;5077099;28;1389;-68
2021/03/23 07:33:14;;;;;;;;;;;;;;;16.83;62.50;101456.66;5107644;28;1216;-67
2021/03/23 07:35:41;;;;;;;;;;;;;;;16.84;62.98;101455.72;5105241;28;1345;-69
2021/03/23 07:38:21;;;;;;;;;;;;;;;16.80;62.99;101466.44;5089248;28;1323;-68
2021/03/23 07:40:50;;;;;;;;;;;;;;;16.75;63.02;101465.72;5087969;28;1305;-68
2021/03/23 07:43:17;;;;;;;;;;;;;;;16.74;62.92;101470.16;5107211;28;1910;-68
2021/03/23 07:45:50;;;;;;;;;;;;;;;16.72;63.13;101477.22;5088846;28;1314;-68
2021/03/23 07:48:46;;;;;;;;;;;;;;;16.72;63.20;101473.72;5107016;28;1267;-67
2021/03/23 07:51:33;;;;;;;;;;;;;;;16.70;63.07;101478.19;5089721;28;1628;-67
2021/03/23 07:54:20;;;;;;;;;;;;;;;16.80;62.83;101479.59;5105338;28;1268;-67
2021/03/23 07:57:05;;;;;;;;;;;;;;;16.76;62.84;101481.47;5106307;28;1295;-67
2021/03/23 07:59:50;;;;;;;;;;;;;;;16.74;63.50;101472.78;5089119;28;1258;-67
2021/03/23 08:02:39;;;;;;;;;;;;;;;16.77;64.02;101471.81;5105445;28;1279;-67
2021/03/23 08:05:16;;;;;;;;;;;;;;;16.76;64.20;101477.97;5110039;28;1905;-68
2021/03/23 08:07:56;;;;;;;;;;;;;;;16.78;64.20;101473.50;5109599;28;1349;-69
2021/03/23 08:10:29;;;;;;;;;;;;;;;16.88;64.55;101475.75;5091858;28;1410;-68
2021/03/23 08:13:11;;;;;;;;;;;;;;;16.92;64.68;101480.00;5093609;28;1562;-67
2021/03/23 08:15:37;;;;;;;;;;;;;;;16.87;64.32;101483.72;5111900;28;1244;-67
2021/03/23 08:18:17;;;;;;;;;;;;;;;16.81;64.24;101491.84;5111597;28;1236;-68
2021/03/23 08:20:47;;;;;;;;;;;;;;;16.77;64.39;101485.81;5109269;28;1288;-68
2021/03/23 08:23:31;;;;;;;;;;;;;;;16.87;64.06;101492.44;5111906;28;1914;-68
2021/03/23 08:26:00;;;;;;;;;;;;;;;16.93;64.17;101489.59;5092629;28;1316;-69
2021/03/23 08:28:30;;;;;;;;;;;;;;;16.87;63.92;101487.19;5111455;28;1224;-67
2021/03/23 08:31:12;;;;;;;;;;;;;;;16.79;64.23;101484.00;5093114;28;1317;-68
2021/03/23 08:33:59;;;;;;;;;;;;;;;16.77;64.19;101485.81;5092961;28;1275;-68
2021/03/23 08:36:44;;;;;;;;;;;;;;;16.75;64.17;101486.78;5090852;28;1315;-68
2021/03/23 08:39:10;;;;;;;;;;;;;;;16.73;64.01;101484.22;5091595;28;1304;-68
2021/03/23 08:41:42;;;;;;;;;;;;;;;16.73;63.95;101491.25;5092237;28;1331;-69
2021/03/23 08:44:27;;;;;;;;;;;;;;;16.72;63.79;101498.28;5111315;28;1914;-68
2021/03/23 08:46:54;;;;;;;;;;;;;;;16.73;63.84;101499.13;5110108;28;1400;-68
2021/03/23 08:49:22;;;;;;;;;;;;;;;16.71;63.68;101501.84;5108614;28;1402;-68
2021/03/23 08:51:50;;;;;;;;;;;;;;;16.72;63.57;101508.81;5091513;28;1441;-68
2021/03/23 08:54:35;;;;;;;;;;;;;;;16.72;63.53;101514.06;5093008;28;1296;-68
2021/03/23 08:57:01;;;;;;;;;;;;;;;16.71;63.42;101519.41;5073371;28;1338;-68
2021/03/23 08:59:32;;;;;;;;;;;;;;;16.71;63.31;101515.00;5092812;28;1233;-68
2021/03/23 09:02:00;;;;;;;;;;;;;;;16.70;63.42;101521.16;5110499;28;1248;-68
2021/03/23 09:04:29;;;;;;;;;;;;;;;16.71;63.35;101517.63;5092547;28;1902;-68
2021/03/23 09:07:00;;;;;;;;;;;;;;;16.70;63.27;101521.16;5110506;28;1291;-67
2021/03/23 09:09:27;;;;;;;;;;;;;;;16.70;63.27;101521.16;5111197;28;1252;-68
2021/03/23 09:12:11;;;;;;;;;;;;;;;16.71;63.13;101519.41;5110731;28;1369;-67
2021/03/23 09:15:06;;;;;;;;;;;;;;;16.70;63.05;101521.16;5109321;28;1209;-68
2021/03/23 09:17:38;;;;;;;;;;;;;;;16.68;63.07;101517.75;5037874;28;1459;-68
2021/03/23 09:20:24;;;;;;;;;;;;;;;16.68;62.89;101520.38;5089766;28;1309;-68
2021/03/23 09:22:50;;;;;;;;;;;;;;;16.68;62.75;101530.88;5108784;28;1284;-68
2021/03/23 09:25:20;;;;;;;;;;;;;;;16.68;62.83;101528.25;5091960;28;1914;-68
2021/03/23 09:27:50;;;;;;;;;;;;;;;16.68;62.79;101530.88;5091889;28;1287;-68
2021/03/23 09:30:35;;;;;;;;;;;;;;;16.80;61.82;101530.44;5107869;27;1405;-67
2021/03/23 09:33:14;;;;;;;;;;;;;;;16.51;51.84;101524.44;5107357;28;1279;-67
2021/03/23 09:36:01;;;;;;;;;;;;;;;16.34;48.86;101543.47;5070705;28;1350;-66
2021/03/23 09:38:40;;;;;;;;;;;;;;;16.33;49.51;101539.97;5107646;28;1217;-67
2021/03/23 09:41:07;;;;;;;;;;;;;;;16.40;48.06;101538.88;5072507;28;1327;-66
2021/03/23 09:43:34;;;;;;;;;;;;;;;16.45;48.36;101535.19;5092010;28;1909;-69
2021/03/23 09:46:13;;;;;;;;;;;;;;;16.55;49.59;101537.50;5091297;28;1386;-64
2021/03/23 09:49:11;;;;;;;;;;;;;;;16.62;49.57;101540.78;5109345;28;1170;-67
2021/03/23 09:51:40;;;;;;;;;;;;;;;16.63;50.56;101542.47;5109105;28;1568;-67
2021/03/23 09:54:21;;;;;;;;;;;;;;;16.58;52.28;101547.03;5104675;27;1268;-66
2021/03/23 09:56:51;;;;;;;;;;;;;;;16.53;53.05;101541.94;5105020;28;1340;-66
2021/03/23 09:59:21;;;;;;;;;;;;;;;16.55;53.53;101544.53;5109324;28;1575;-66
2021/03/23 10:01:51;;;;;;;;;;;;;;;16.54;54.00;101546.28;5075494;27;1547;-67
2021/03/23 10:04:25;;;;;;;;;;;;;;;16.57;54.12;101537.41;5091211;28;1934;-67
2021/03/23 10:06:52;;;;;;;;;;;;;;;16.58;54.53;101544.41;5091211;28;1295;-67
2021/03/23 10:09:27;;;;;;;;;;;;;;;16.58;54.41;101542.66;5091063;28;1263;-68
2021/03/23 10:11:54;;;;;;;;;;;;;;;16.60;54.64;101543.44;5091745;27;1478;-66
2021/03/23 10:14:29;;;;;;;;;;;;;;;16.61;54.94;101550.44;5107454;28;1193;-66
2021/03/23 10:17:09;;;;;;;;;;;;;;;16.61;54.90;101547.78;5092242;27;1311;-66
2021/03/23 10:19:37;;;;;;;;;;;;;;;16.62;55.23;101544.25;5090177;28;1226;-67
2021/03/23 10:22:09;;;;;;;;;;;;;;;16.63;55.33;101545.97;5107727;27;1244;-66
2021/03/23 10:24:37;;;;;;;;;;;;;;;16.65;55.65;101548.56;5109470;28;1914;-66
2021/03/23 10:27:10;;;;;;;;;;;;;;;16.64;55.85;101552.94;5087407;28;1230;-68
2021/03/23 10:29:36;;;;;;;;;;;;;;;16.67;55.70;101560.72;5109609;28;1257;-67
2021/03/23 10:32:18;;;;;;;;;;;;;;;16.72;55.94;101563.19;5091671;28;1392;-66
2021/03/23 10:35:03;;;;;;;;;;;;;;;16.77;55.78;101559.50;5106796;28;1272;-68
2021/03/23 10:37:32;;;;;;;;;;;;;;;16.80;55.73;101564.66;5108199;27;1287;-66
2021/03/23 10:39:58;;;;;;;;;;;;;;;16.83;55.85;101559.28;5086926;28;1151;-67
2021/03/23 10:42:31;;;;;;;;;;;;;;;16.85;55.99;101562.69;5108429;28;1299;-67
2021/03/23 10:45:16;;;;;;;;;;;;;;;16.85;56.21;101562.69;5092186;28;2011;-67
2021/03/23 10:47:45;;;;;;;;;;;;;;;16.84;56.61;101560.97;5113176;27;1315;-67
2021/03/23 10:50:38;;;;;;;;;;;;;;;16.87;56.71;101560.03;5110255;27;1485;-67
2021/03/23 10:53:09;;;;;;;;;;;;;;;16.92;57.00;101552.81;5104285;28;1240;-67
2021/03/23 10:55:38;;;;;;;;;;;;;;;16.94;57.55;101554.47;5109590;27;1018;-67
2021/03/23 10:58:12;;;;;;;;;;;;;;;16.96;57.77;101553.56;5084722;28;1567;-68
2021/03/23 11:00:42;;;;;;;;;;;;;;;16.98;57.81;101557.00;5110580;27;1256;-67
2021/03/23 11:03:12;;;;;;;;;;;;;;;16.98;57.77;101551.72;5108364;28;1287;-67
2021/03/23 11:05:43;;;;;;;;;;;;;;;16.99;58.22;101558.72;5108120;28;1909;-66
2021/03/23 11:08:11;;;;;;;;;;;;;;;17.00;58.16;101555.16;5106106;28;1385;-66
2021/03/23 11:10:38;;;;;;;;;;;;;;;17.01;58.14;101556.88;5107804;28;1361;-68
2021/03/23 11:13:04;;;;;;;;;;;;;;;17.03;58.24;101553.28;5105316;28;1213;-66
2021/03/23 11:15:36;;;;;;;;;;;;;;;17.10;58.10;101554.75;5091049;28;1260;-64
2021/03/23 11:18:04;;;;;;;;;;;;;;;17.15;58.11;101555.44;5099795;28;1233;-66
2021/03/23 11:20:37;;;;;;;;;;;;;;;17.13;58.47;101554.66;5107393;28;1245;-67
2021/03/23 11:23:17;;;;;;;;;;;;;;;17.13;58.56;101554.66;5105789;28;1276;-67
2021/03/23 11:25:43;;;;;;;;;;;;;;;17.13;58.47;101557.28;5108842;28;2025;-65
2021/03/23 11:28:15;;;;;;;;;;;;;;;17.11;58.51;101560.91;5089560;28;1133;-66
2021/03/23 11:30:42;;;;;;;;;;;;;;;17.12;58.56;101559.97;5088716;28;1378;-65
2021/03/23 11:33:10;;;;;;;;;;;;;;;17.12;58.50;101555.56;5089599;28;1269;-67
2021/03/23 11:35:37;;;;;;;;;;;;;;;17.14;58.87;101558.16;5090226;28;1321;-66
2021/03/23 11:38:03;;;;;;;;;;;;;;;17.15;58.74;101555.44;5091197;28;1245;-66
2021/03/23 11:40:30;;;;;;;;;;;;;;;17.17;58.65;101563.31;5113737;27;1276;-67
2021/03/23 11:42:57;;;;;;;;;;;;;;;17.18;58.62;101552.69;5111830;28;1235;-66
2021/03/23 11:45:32;;;;;;;;;;;;;;;17.27;58.37;101556.75;5113151;27;1918;-68
2021/03/23 11:48:03;;;;;;;;;;;;;;;17.30;57.95;101554.88;5111681;28;1224;-67
2021/03/23 11:50:32;;;;;;;;;;;;;;;17.42;58.09;101559.66;5091276;28;1619;-74
2021/03/23 11:52:59;;;;;;;;;;;;;;;17.41;58.43;101557.97;5110816;28;1313;-70
2021/03/23 11:55:32;;;;;;;;;;;;;;;17.40;58.76;101555.38;5093222;28;1530;-76
2021/03/23 11:57:59;;;;;;;;;;;;;;;17.41;58.66;101546.56;5091721;28;1315;-74
2021/03/23 12:00:30;;;;;;;;;;;;;;;17.43;58.56;101544.72;5091804;28;1323;-72
2021/03/23 12:03:00;;;;;;;;;;;;;;;17.46;58.44;101549.88;5110618;28;1327;-73
2021/03/23 12:05:27;;;;;;;;;;;;;;;17.48;58.19;101537.47;5111980;27;1977;-72
2021/03/23 12:08:13;;;;;;;;;;;;;;;17.49;58.32;101534.81;5109783;28;1328;-69
2021/03/23 12:10:46;;;;;;;;;;;;;;;17.49;58.38;101534.81;5111509;27;1419;-73
2021/03/23 12:13:31;;;;;;;;;;;;;;;17.50;58.13;101530.41;5109353;28;1240;-71
2021/03/23 12:16:30;;;;;;;;;;;;;;;17.53;58.06;101530.28;5076593;28;1390;-68
2021/03/23 12:19:15;;;;;;;;;;;;;;;17.56;58.03;101535.47;5092328;27;1217;-70
2021/03/23 12:21:53;;;;;;;;;;;;;;;17.57;57.84;101529.25;5092328;28;1299;-71
2021/03/23 12:24:22;;;;;;;;;;;;;;;17.58;57.95;101525.72;5088683;28;1913;-69
2021/03/23 12:26:52;;;;;;;;;;;;;;;17.58;58.04;101525.72;5074750;28;1405;-69
2021/03/23 12:29:42;;;;;;;;;;;;;;;17.62;58.01;101526.44;5093721;28;1547;-71
2021/03/23 12:32:15;;;;;;;;;;;;;;;17.56;58.38;101519.66;5091323;28;1397;-73
2021/03/23 12:34:46;;;;;;;;;;;;;;;17.52;58.80;101520.66;5088953;28;1229;-72
2021/03/23 12:37:21;;;;;;;;;;;;;;;17.54;58.71;101515.34;5109517;28;1446;-70
2021/03/23 12:39:47;;;;;;;;;;;;;;;17.61;58.79;101517.69;5109179;28;1243;-75
2021/03/23 12:42:17;;;;;;;;;;;;;;;17.66;58.44;101515.72;5109410;28;1300;-72
2021/03/23 12:44:46;;;;;;;;;;;;;;;17.63;58.80;101510.56;5108590;27;1968;-73
2021/03/23 12:47:13;;;;;;;;;;;;;;;17.64;58.91;101501.75;5109558;28;1315;-75
2021/03/23 12:49:41;;;;;;;;;;;;;;;17.65;58.99;101502.63;5073744;28;1416;-72
2021/03/23 12:52:10;;;;;;;;;;;;;;;17.62;58.85;101508.00;5090082;28;1339;-71
2021/03/23 12:54:42;;;;;;;;;;;;;;;17.61;59.30;101509.78;5108721;28;1342;-69
2021/03/23 12:57:29;;;;;;;;;;;;;;;17.61;59.20;101507.13;5108764;28;1319;-70
2021/03/23 13:00:01;;;;;;;;;;;;;;;17.59;59.44;101487.91;5107790;27;1303;-72
2021/03/23 13:02:30;;;;;;;;;;;;;;;17.63;59.00;101497.38;5091043;28;1378;-70
2021/03/23 13:05:18;;;;;;;;;;;;;;;17.71;59.56;101492.69;5107978;28;1922;-69
2021/03/23 13:07:47;;;;;;;;;;;;;;;17.74;59.50;101489.94;5090177;28;1271;-69